createdAt,value
2018-12-21T00:00:50.507Z,98313.78
2018-12-21T00:03:25.486Z,98318.98
2018-12-21T00:06:00.493Z,98325.52
2018-12-21T00:08:35.254Z,98306.39
2018-12-21T00:11:12.204Z,98313.77
2018-12-21T00:13:53.469Z,98315.07
2018-12-21T00:16:28.803Z,98316.37
2018-12-21T00:19:03.577Z,98311.60
2018-12-21T00:21:40.586Z,98302.47
2018-12-21T00:24:20.038Z,98310.73
2018-12-21T00:26:55.316Z,98309.39
2018-12-21T00:29:30.388Z,98294.19
2018-12-21T00:32:11.158Z,98305.00
2018-12-21T00:34:51.844Z,98298.03
2018-12-21T00:37:34.732Z,98305.88
2018-12-21T00:40:12.016Z,98308.03
2018-12-21T00:42:52.699Z,98310.19
2018-12-21T00:45:31.288Z,98306.70
2018-12-21T00:48:06.691Z,98301.08
2018-12-21T00:50:41.662Z,98301.08
2018-12-21T00:53:19.380Z,98304.11
2018-12-21T00:55:54.073Z,98305.81
2018-12-21T00:58:30.928Z,98303.25
2018-12-21T01:01:05.827Z,98313.62
2018-12-21T01:03:39.535Z,98311.00
2018-12-21T01:06:14.508Z,98307.14
2018-12-21T01:08:49.144Z,98311.09
2018-12-21T01:11:23.998Z,98305.42
2018-12-21T01:13:59.016Z,98303.73
2018-12-21T01:16:35.825Z,98310.25
2018-12-21T01:19:16.136Z,98315.85
2018-12-21T01:24:42.204Z,98319.84
2018-12-21T01:27:15.485Z,98325.91
2018-12-21T01:29:50.319Z,98319.83
2018-12-21T01:32:23.401Z,98325.52
2018-12-21T01:34:57.284Z,98330.28
2018-12-21T01:37:35.122Z,98316.36
2018-12-21T01:40:08.203Z,98317.23
2018-12-21T01:42:41.422Z,98314.19
2018-12-21T01:45:14.466Z,98297.70
2018-12-21T01:47:45.802Z,98291.20
2018-12-21T01:50:19.141Z,98289.06
2018-12-21T01:52:52.432Z,98287.33
2018-12-21T01:55:23.678Z,98285.20
2018-12-21T01:57:54.966Z,98276.98
2018-12-21T02:00:30.637Z,98278.77
2018-12-21T02:03:01.854Z,98279.61
2018-12-21T02:05:35.284Z,98269.64
2018-12-21T02:08:08.440Z,98275.67
2018-12-21T02:10:41.517Z,98281.38
2018-12-21T02:13:13.002Z,98280.92
2018-12-21T02:15:46.272Z,98273.48
2018-12-21T02:18:21.241Z,98267.84
2018-12-21T02:20:54.134Z,98263.94
2018-12-21T02:23:24.872Z,98267.42
2018-12-21T02:25:58.433Z,98264.39
2018-12-21T02:28:32.887Z,98260.06
2018-12-21T02:31:05.902Z,98260.94
2018-12-21T02:33:38.966Z,98252.31
2018-12-21T02:36:13.680Z,98250.15
2018-12-21T02:38:45.188Z,98261.42
2018-12-21T02:41:22.406Z,98263.63
2018-12-21T02:43:56.159Z,98254.06
2018-12-21T02:46:26.831Z,98257.51
2018-12-21T02:48:57.449Z,98250.59
2018-12-21T02:51:29.716Z,98244.02
2018-12-21T02:54:03.378Z,98240.55
2018-12-21T02:56:34.749Z,98239.24
2018-12-21T02:59:07.970Z,98239.69
2018-12-21T03:01:39.481Z,98228.36
2018-12-21T03:04:13.092Z,98237.48
2018-12-21T03:06:44.320Z,98225.31
2018-12-21T03:09:17.589Z,98207.96
2018-12-21T03:11:51.482Z,98212.80
2018-12-21T03:14:22.862Z,98200.18
2018-12-21T03:16:54.148Z,98192.83
2018-12-21T03:19:27.316Z,98187.61
2018-12-21T03:22:02.233Z,98188.03
2018-12-21T03:24:33.582Z,98182.80
2018-12-21T03:27:04.898Z,98189.76
2018-12-21T03:29:37.929Z,98195.47
2018-12-21T03:32:09.072Z,98187.66
2018-12-21T03:34:42.586Z,98188.08
2018-12-21T03:37:15.676Z,98178.91
2018-12-21T03:39:49.558Z,98180.19
2018-12-21T03:42:21.256Z,98180.11
2018-12-21T03:44:52.176Z,98167.89
2018-12-21T03:47:23.243Z,98170.56
2018-12-21T03:49:56.632Z,98170.55
2018-12-21T03:52:28.011Z,98165.28
2018-12-21T03:55:01.302Z,98166.58
2018-12-21T03:57:36.982Z,98161.33
2018-12-21T04:00:08.641Z,98160.44
2018-12-21T04:02:43.850Z,98157.36
2018-12-21T04:05:16.605Z,98153.78
2018-12-21T04:07:52.455Z,98152.02
2018-12-21T04:10:23.288Z,98146.41
2018-12-21T04:12:54.530Z,98135.57
2018-12-21T04:15:27.853Z,98140.77
2018-12-21T04:18:01.375Z,98139.89
2018-12-21T04:20:35.571Z,98141.61
2018-12-21T04:23:09.363Z,98137.27
2018-12-21T04:25:40.532Z,98139.01
2018-12-21T04:28:11.564Z,98140.31
2018-12-21T04:30:45.053Z,98114.65
2018-12-21T04:33:19.024Z,98130.70
2018-12-21T04:35:54.846Z,98125.95
2018-12-21T04:38:26.182Z,98127.72
2018-12-21T04:40:57.155Z,98124.70
2018-12-21T04:43:28.282Z,98116.44
2018-12-21T04:46:01.647Z,98119.06
2018-12-21T04:48:36.818Z,98115.17
2018-12-21T04:51:08.138Z,98112.56
2018-12-21T04:53:41.409Z,98110.37
2018-12-21T04:56:16.349Z,98109.47
2018-12-21T04:58:47.905Z,98116.42
2018-12-21T05:01:21.102Z,98108.17
2018-12-21T05:03:52.587Z,98106.85
2018-12-21T05:06:25.603Z,98103.34
2018-12-21T05:08:59.427Z,98101.18
2018-12-21T05:11:32.539Z,98097.33
2018-12-21T05:14:07.887Z,98093.84
2018-12-21T05:16:40.918Z,98092.12
2018-12-21T05:19:14.531Z,98096.08
2018-12-21T05:21:47.686Z,98100.45
2018-12-21T05:24:19.212Z,98100.83
2018-12-21T05:26:52.628Z,98102.55
2018-12-21T05:29:24.002Z,98109.88
2018-12-21T05:31:59.458Z,98098.13
2018-12-21T05:34:30.998Z,98091.16
2018-12-21T05:37:04.426Z,98077.22
2018-12-21T05:39:34.816Z,98080.72
2018-12-21T05:42:08.495Z,98078.06
2018-12-21T05:44:39.830Z,98066.79
2018-12-21T05:47:13.038Z,98065.06
2018-12-21T05:49:44.529Z,98050.25
2018-12-21T05:52:17.998Z,98060.69
2018-12-21T05:54:51.829Z,98048.48
2018-12-21T05:57:25.638Z,98054.56
2018-12-21T05:59:56.194Z,98048.83
2018-12-21T06:02:28.319Z,98037.48
2018-12-21T06:05:01.733Z,98029.27
2018-12-21T06:07:33.961Z,98035.31
2018-12-21T06:10:07.275Z,98038.39
2018-12-21T06:12:40.215Z,98030.09
2018-12-21T06:15:11.626Z,98028.36
2018-12-21T06:17:44.787Z,98026.27
2018-12-21T06:20:24.208Z,98021.02
2018-12-21T06:22:59.443Z,98006.67
2018-12-21T06:25:32.546Z,98005.70
2018-12-21T06:28:03.636Z,97996.19
2018-12-21T06:30:37.011Z,97978.28
2018-12-21T06:33:11.890Z,97976.13
2018-12-21T06:35:45.737Z,97966.48
2018-12-21T06:38:22.662Z,97963.05
2018-12-21T06:40:56.529Z,97945.63
2018-12-21T06:43:31.323Z,97935.27
2018-12-21T06:46:04.431Z,97948.78
2018-12-21T06:48:36.133Z,97935.18
2018-12-21T06:51:07.618Z,97936.05
2018-12-21T06:53:41.120Z,97929.47
2018-12-21T06:56:12.663Z,97922.97
2018-12-21T06:58:44.439Z,97913.92
2018-12-21T07:01:24.114Z,97901.77
2018-12-21T07:03:57.316Z,97903.91
2018-12-21T07:06:28.705Z,97909.53
2018-12-21T07:08:59.627Z,97903.46
2018-12-21T07:11:32.706Z,97903.81
2018-12-21T07:14:04.057Z,97897.30
2018-12-21T07:16:37.272Z,97894.30
2018-12-21T07:19:08.605Z,97888.64
2018-12-21T07:21:42.086Z,97874.31
2018-12-21T07:24:17.080Z,97861.27
2018-12-21T07:26:48.415Z,97861.63
2018-12-21T07:29:23.924Z,97846.89
2018-12-21T07:31:55.449Z,97848.09
2018-12-21T07:34:28.770Z,97849.41
2018-12-21T07:36:59.614Z,97857.64
2018-12-21T07:39:32.347Z,97849.08
2018-12-21T07:52:16.785Z,97824.30
2018-12-21T07:54:50.454Z,97812.49
2018-12-21T07:57:24.190Z,97818.12
2018-12-21T07:59:55.441Z,97811.25
2018-12-21T08:02:28.882Z,97794.30
2018-12-21T08:05:00.185Z,97797.83
2018-12-21T08:07:33.788Z,97793.44
2018-12-21T08:10:12.961Z,97795.22
2018-12-21T08:12:44.317Z,97778.77
2018-12-21T08:15:17.626Z,97773.52
2018-12-21T08:17:55.647Z,97754.81
2018-12-21T08:20:31.407Z,97747.53
2018-12-21T08:23:05.096Z,97749.66
2018-12-21T08:25:40.835Z,97750.08
2018-12-21T08:28:14.627Z,97767.41
2018-12-21T08:30:50.815Z,97767.97
2018-12-21T08:33:22.086Z,97762.06
2018-12-21T08:36:00.277Z,97774.38
2018-12-21T08:38:36.234Z,97763.22
2018-12-21T08:41:09.348Z,97776.33
2018-12-21T08:43:43.841Z,97768.53
2018-12-21T08:46:23.675Z,97771.69
2018-12-21T08:48:57.131Z,97759.02
2018-12-21T08:51:32.680Z,97762.11
2018-12-21T08:54:08.675Z,97756.03
2018-12-21T08:56:44.465Z,97750.82
2018-12-21T08:59:18.653Z,97750.82
2018-12-21T09:01:53.627Z,97740.01
2018-12-21T09:04:32.115Z,97730.05
2018-12-21T09:07:01.682Z,97729.16
2018-12-21T09:09:37.443Z,97730.05
2018-12-21T09:12:11.224Z,97704.48
2018-12-21T09:14:42.899Z,97700.23
2018-12-21T09:17:17.498Z,97699.41
2018-12-21T09:19:58.000Z,97671.14
2018-12-21T09:22:31.907Z,97673.88
2018-12-21T09:25:07.590Z,97649.21
2018-12-21T09:27:43.593Z,97651.98
2018-12-21T09:30:19.019Z,97643.78
2018-12-21T09:32:53.459Z,97631.70
2018-12-21T09:35:27.990Z,97629.96
2018-12-21T09:38:02.736Z,97619.53
2018-12-21T09:40:37.125Z,97612.12
2018-12-21T09:43:09.109Z,97604.80
2018-12-21T09:45:43.699Z,97594.75
2018-12-21T09:48:15.794Z,97576.51
2018-12-21T09:50:50.002Z,97578.59
2018-12-21T09:53:33.743Z,97551.91
2018-12-21T09:56:07.749Z,97545.81
2018-12-21T09:58:43.949Z,97541.34
2018-12-21T10:01:22.158Z,97540.05
2018-12-21T10:03:57.733Z,97531.22
2018-12-21T10:06:31.324Z,97515.38
2018-12-21T10:09:07.046Z,97511.91
2018-12-21T10:11:38.506Z,97508.37
2018-12-21T10:14:11.625Z,97497.41
2018-12-21T10:16:46.750Z,97478.05
2018-12-21T10:19:18.240Z,97486.20
2018-12-21T10:21:51.550Z,97490.48
2018-12-21T10:24:23.432Z,97480.05
2018-12-21T10:26:54.310Z,97472.09
2018-12-21T10:29:27.751Z,97475.84
2018-12-21T10:32:01.681Z,97467.92
2018-12-21T10:34:35.192Z,97465.22
2018-12-21T10:37:08.405Z,97464.28
2018-12-21T10:39:40.299Z,97453.39
2018-12-21T10:42:17.648Z,97447.23
2018-12-21T10:44:49.210Z,97424.16
2018-12-21T10:47:22.533Z,97428.61
2018-12-21T10:49:54.265Z,97419.47
2018-12-21T10:52:25.806Z,97406.97
2018-12-21T10:54:59.913Z,97393.20
2018-12-21T10:57:33.788Z,97387.89
2018-12-21T11:00:12.217Z,97393.02
2018-12-21T11:02:45.621Z,97376.56
2018-12-21T11:05:19.144Z,97368.73
2018-12-21T11:07:57.537Z,97359.95
2018-12-21T11:10:35.187Z,97356.39
2018-12-21T11:13:11.261Z,97345.14
2018-12-21T11:15:44.997Z,97335.16
2018-12-21T11:18:22.904Z,97328.09
2018-12-21T11:20:58.880Z,97315.39
2018-12-21T11:23:34.269Z,97303.91
2018-12-21T11:26:08.265Z,97296.02
2018-12-21T11:28:44.207Z,97289.74
2018-12-21T11:31:18.101Z,97266.50
2018-12-21T11:34:08.630Z,97261.62
2018-12-21T11:36:53.881Z,97241.83
2018-12-21T11:39:32.701Z,97237.77
2018-12-21T11:42:12.721Z,97214.20
2018-12-21T11:44:56.915Z,97208.97
2018-12-21T11:50:38.853Z,97178.02
2018-12-21T11:53:16.666Z,97173.89
2018-12-21T11:56:01.697Z,97164.06
2018-12-21T11:58:40.986Z,97161.66
2018-12-21T12:01:22.143Z,97144.17
2018-12-21T12:03:58.682Z,97135.23
2018-12-21T12:06:42.162Z,97114.53
2018-12-21T12:12:22.323Z,97114.65
2018-12-21T12:15:11.581Z,97107.32
2018-12-21T12:17:44.873Z,97109.64
2018-12-21T12:20:18.721Z,97098.34
2018-12-21T12:22:50.085Z,97103.88
2018-12-21T12:25:23.371Z,97097.83
2018-12-21T12:27:58.194Z,97096.32
2018-12-21T12:30:33.131Z,97101.86
2018-12-21T12:33:06.126Z,97101.56
2018-12-21T12:35:37.658Z,97095.19
2018-12-21T12:38:13.000Z,97106.05
2018-12-21T12:40:44.371Z,97099.64
2018-12-21T12:43:21.713Z,97101.68
2018-12-21T12:45:54.914Z,97088.00
2018-12-21T12:48:27.814Z,97087.93
2018-12-21T12:50:59.302Z,97073.39
2018-12-21T12:53:32.739Z,97094.72
2018-12-21T12:56:07.845Z,97079.35
2018-12-21T12:58:39.274Z,97049.59
2018-12-21T13:01:12.545Z,97070.53
2018-12-21T13:03:45.555Z,97062.67
2018-12-21T13:06:20.342Z,97063.92
2018-12-21T13:08:55.304Z,97062.22
2018-12-21T13:11:28.155Z,97060.64
2018-12-21T13:13:59.523Z,97062.67
2018-12-21T13:16:30.609Z,97057.38
2018-12-21T13:19:03.858Z,97043.92
2018-12-21T13:21:37.589Z,97038.56
2018-12-21T13:24:10.525Z,97037.32
2018-12-21T13:26:41.811Z,97027.60
2018-12-21T13:29:12.950Z,97027.31
2018-12-21T13:31:43.971Z,97045.97
2018-12-21T13:34:14.900Z,97047.60
2018-12-21T13:36:50.323Z,97029.50
2018-12-21T13:39:21.781Z,97031.95
2018-12-21T13:41:52.771Z,97032.05
2018-12-21T13:44:26.666Z,97030.25
2018-12-21T13:47:00.342Z,97037.81
2018-12-21T13:49:33.234Z,97032.31
2018-12-21T13:52:04.629Z,97036.67
2018-12-21T13:54:35.634Z,97031.66
2018-12-21T13:57:06.966Z,97042.13
2018-12-21T13:59:37.893Z,97037.13
2018-12-21T14:02:09.084Z,97036.83
2018-12-21T14:04:44.475Z,97037.47
2018-12-21T14:07:15.724Z,97046.02
2018-12-21T14:09:46.875Z,97049.42
2018-12-21T14:12:17.813Z,97049.03
2018-12-21T14:14:49.497Z,97051.13
2018-12-21T14:17:20.903Z,97058.09
2018-12-21T14:19:51.986Z,97056.80
2018-12-21T14:22:22.665Z,97063.15
2018-12-21T14:24:56.092Z,97061.13
2018-12-21T14:27:27.282Z,97060.84
2018-12-21T14:30:01.156Z,97057.52
2018-12-21T14:32:36.654Z,97057.41
2018-12-21T14:35:09.765Z,97068.38
2018-12-21T14:37:42.686Z,97076.03
2018-12-21T14:40:22.043Z,97070.14
2018-12-21T14:42:53.133Z,97059.34
2018-12-21T14:45:24.434Z,97082.02
2018-12-21T14:47:55.614Z,97074.80
2018-12-21T14:50:28.793Z,97081.34
2018-12-21T14:52:59.917Z,97085.64
2018-12-21T14:55:37.402Z,97086.09
2018-12-21T14:58:07.434Z,97098.54
2018-12-21T15:00:38.800Z,97102.86
2018-12-21T15:03:14.477Z,97111.94
2018-12-21T15:05:45.823Z,97102.23
2018-12-21T15:08:21.498Z,97115.66
2018-12-21T15:10:56.396Z,97100.14
2018-12-21T15:13:27.824Z,97104.22
2018-12-21T15:16:01.069Z,97089.26
2018-12-21T15:18:32.380Z,97098.91
2018-12-21T15:21:08.025Z,97096.95
2018-12-21T15:23:39.305Z,97092.62
2018-12-21T15:26:10.387Z,97099.83
2018-12-21T15:28:43.836Z,97098.72
2018-12-21T15:31:19.775Z,97098.86
2018-12-21T15:33:51.351Z,97107.23
2018-12-21T15:36:24.390Z,97102.38
2018-12-21T15:38:54.959Z,97098.27
2018-12-21T15:41:28.305Z,97099.29
2018-12-21T15:44:02.901Z,97100.34
2018-12-21T15:46:35.817Z,97111.58
2018-12-21T15:49:10.896Z,97103.30
2018-12-21T15:51:46.524Z,97103.97
2018-12-21T15:54:19.511Z,97097.39
2018-12-21T15:56:53.175Z,97097.00
2018-12-21T15:59:24.329Z,97098.94
2018-12-21T16:01:55.362Z,97094.95
2018-12-21T16:04:28.874Z,97087.83
2018-12-21T16:07:02.866Z,97098.83
2018-12-21T16:09:34.360Z,97116.61
2018-12-21T16:12:05.618Z,97117.07
2018-12-21T16:14:36.800Z,97113.95
2018-12-21T16:17:07.709Z,97135.50
2018-12-21T16:19:38.704Z,97113.39
2018-12-21T16:22:09.964Z,97102.25
2018-12-21T16:24:40.887Z,97120.73
2018-12-21T16:27:12.391Z,97111.87
2018-12-21T16:29:45.727Z,97126.11
2018-12-21T16:32:18.830Z,97120.63
2018-12-21T16:34:50.097Z,97118.65
2018-12-21T16:37:21.212Z,97125.48
2018-12-21T16:39:51.966Z,97126.97
2018-12-21T16:42:22.939Z,97140.72
2018-12-21T16:44:53.869Z,97131.58
2018-12-21T16:47:24.847Z,97128.37
2018-12-21T16:49:56.154Z,97124.84
2018-12-21T16:52:29.318Z,97121.46
2018-12-21T16:55:04.200Z,97126.25
2018-12-21T16:57:37.309Z,97135.41
2018-12-21T17:00:13.299Z,97136.44
2018-12-21T17:02:44.757Z,97140.30
2018-12-21T17:05:17.974Z,97140.12
2018-12-21T17:07:49.283Z,97148.63
2018-12-21T17:10:24.819Z,97156.39
2018-12-21T17:12:56.246Z,97164.86
2018-12-21T17:15:29.415Z,97157.60
2018-12-21T17:18:02.492Z,97174.29
2018-12-21T17:20:33.907Z,97165.09
2018-12-21T17:23:04.795Z,97159.26
2018-12-21T17:25:35.789Z,97162.20
2018-12-21T17:28:06.773Z,97159.61
2018-12-21T17:30:37.289Z,97152.77
2018-12-21T17:33:10.825Z,97154.39
2018-12-21T17:35:45.531Z,97153.44
2018-12-21T17:38:18.639Z,97162.16
2018-12-21T17:40:55.538Z,97139.79
2018-12-21T17:43:28.608Z,97145.85
2018-12-21T17:45:59.950Z,97133.91
2018-12-21T17:48:30.911Z,97135.84
2018-12-21T17:51:04.245Z,97137.27
2018-12-21T17:53:35.579Z,97127.99
2018-12-21T17:56:15.422Z,97129.08
2018-12-21T17:58:47.777Z,97131.55
2018-12-21T18:01:20.903Z,97127.22
2018-12-21T18:04:07.936Z,97136.42
2018-12-21T18:06:39.167Z,97139.23
2018-12-21T18:09:14.753Z,97125.36
2018-12-21T18:11:57.030Z,97137.15
2018-12-21T18:14:25.447Z,97132.20
2018-12-21T18:17:00.866Z,97126.25
2018-12-21T18:19:35.209Z,97132.28
2018-12-21T18:22:14.852Z,97138.16
2018-12-21T18:24:49.257Z,97126.92
2018-12-21T18:27:24.666Z,97108.59
2018-12-21T18:29:59.041Z,97112.84
2018-12-21T18:32:35.738Z,97120.68
2018-12-21T18:35:12.289Z,97133.20
2018-12-21T18:37:55.359Z,97143.92
2018-12-21T18:40:31.088Z,97126.43
2018-12-21T18:43:11.090Z,97137.20
2018-12-21T18:45:45.297Z,97135.04
2018-12-21T18:48:22.211Z,97133.39
2018-12-21T18:50:52.878Z,97137.43
2018-12-21T18:53:27.053Z,97152.36
2018-12-21T18:56:01.448Z,97146.45
2018-12-21T18:58:38.383Z,97144.03
2018-12-21T19:01:11.484Z,97137.00
2018-12-21T19:03:48.245Z,97132.12
2018-12-21T19:06:28.393Z,97155.78
2018-12-21T19:09:04.518Z,97163.20
2018-12-21T19:11:37.969Z,97172.80
2018-12-21T19:14:17.546Z,97165.06
2018-12-21T19:16:51.771Z,97162.24
2018-12-21T19:19:26.582Z,97161.08
2018-12-21T19:22:00.345Z,97177.00
2018-12-21T19:24:35.281Z,97189.94
2018-12-21T19:27:12.278Z,97194.66
2018-12-21T19:29:47.171Z,97197.95
2018-12-21T19:32:26.562Z,97195.69
2018-12-21T19:35:06.446Z,97200.66
2018-12-21T19:37:42.078Z,97203.66
2018-12-21T19:40:15.905Z,97198.05
2018-12-21T19:42:50.843Z,97187.36
2018-12-21T19:45:25.882Z,97191.69
2018-12-21T19:48:01.102Z,97199.53
2018-12-21T19:50:34.771Z,97210.95
2018-12-21T19:53:09.643Z,97221.41
2018-12-21T19:55:47.509Z,97238.61
2018-12-21T19:58:40.427Z,97245.84
2018-12-21T20:01:21.064Z,97249.66
2018-12-21T20:03:58.293Z,97253.72
2018-12-21T20:06:36.144Z,97239.58
2018-12-21T20:09:22.744Z,97248.07
2018-12-21T20:12:11.462Z,97234.28
2018-12-21T20:14:49.441Z,97227.77
2018-12-21T20:17:26.535Z,97231.44
2018-12-21T20:19:59.799Z,97221.34
2018-12-21T20:22:32.127Z,97223.66
2018-12-21T20:25:09.931Z,97237.80
2018-12-21T20:27:44.805Z,97245.92
2018-12-21T20:30:26.515Z,97231.58
2018-12-21T20:33:04.738Z,97247.78
2018-12-21T20:35:44.872Z,97242.61
2018-12-21T20:38:21.433Z,97250.54
2018-12-21T20:40:57.808Z,97244.41
2018-12-21T20:43:40.147Z,97242.53
2018-12-21T20:46:13.834Z,97262.75
2018-12-21T20:48:48.426Z,97257.06
2018-12-21T20:51:23.520Z,97236.09
2018-12-21T20:53:58.767Z,97255.53
2018-12-21T20:56:32.159Z,97261.70
2018-12-21T20:59:08.300Z,97255.77
2018-12-21T21:01:42.625Z,97253.53
2018-12-21T21:04:17.203Z,97268.73
2018-12-21T21:06:54.156Z,97272.95
2018-12-21T21:09:31.740Z,97268.55
2018-12-21T21:12:06.680Z,97272.27
2018-12-21T21:14:42.482Z,97277.12
2018-12-21T21:17:17.283Z,97272.33
2018-12-21T21:19:52.073Z,97280.37
2018-12-21T21:22:27.097Z,97276.91
2018-12-21T21:25:07.255Z,97285.16
2018-12-21T21:27:44.762Z,97282.63
2018-12-21T21:30:20.051Z,97279.66
2018-12-21T21:33:00.291Z,97280.97
2018-12-21T21:35:34.014Z,97292.72
2018-12-21T21:38:15.226Z,97304.08
2018-12-21T21:40:49.447Z,97289.05
2018-12-21T21:43:23.210Z,97300.47
2018-12-21T21:45:58.219Z,97322.37
2018-12-21T21:48:39.647Z,97316.95
2018-12-21T21:51:14.819Z,97318.34
2018-12-21T21:53:54.332Z,97320.62
2018-12-21T21:56:29.698Z,97331.94
2018-12-21T21:59:06.567Z,97330.86
2018-12-21T22:01:40.444Z,97332.80
2018-12-21T22:04:15.495Z,97334.01
2018-12-21T22:06:56.164Z,97345.59
2018-12-21T22:09:33.381Z,97342.66
2018-12-21T22:12:06.959Z,97344.08
2018-12-21T22:14:41.819Z,97353.44
2018-12-21T22:17:16.653Z,97356.68
2018-12-21T22:19:51.680Z,97357.95
2018-12-21T22:22:26.272Z,97356.92
2018-12-21T22:25:00.021Z,97356.01
2018-12-21T22:27:36.938Z,97351.17
2018-12-21T22:30:11.875Z,97358.68
2018-12-21T22:32:46.614Z,97352.52
2018-12-21T22:35:20.609Z,97356.70
2018-12-21T22:37:54.642Z,97365.25
2018-12-21T22:40:28.734Z,97359.52
2018-12-21T22:43:03.539Z,97363.70
2018-12-21T22:45:37.791Z,97355.28
2018-12-21T22:48:14.675Z,97365.82
2018-12-21T22:50:49.825Z,97364.86
2018-12-21T22:53:26.785Z,97375.81
2018-12-21T22:56:01.654Z,97368.93
2018-12-21T22:58:38.420Z,97367.75
2018-12-21T23:01:12.582Z,97376.77
2018-12-21T23:03:46.530Z,97374.18
2018-12-21T23:06:26.826Z,97378.55
2018-12-21T23:09:02.133Z,97385.87
2018-12-21T23:11:39.197Z,97391.64
2018-12-21T23:14:14.121Z,97396.16
2018-12-21T23:16:48.853Z,97398.53
2018-12-21T23:19:25.719Z,97394.87
2018-12-21T23:21:59.856Z,97400.55
2018-12-21T23:24:36.890Z,97399.58
2018-12-21T23:27:11.781Z,97402.92
2018-12-21T23:29:45.714Z,97410.17
2018-12-21T23:32:19.598Z,97413.67
2018-12-21T23:34:53.680Z,97419.99
2018-12-21T23:37:28.457Z,97434.02
2018-12-21T23:40:03.559Z,97420.84
2018-12-21T23:42:38.386Z,97426.09
2018-12-21T23:45:13.219Z,97425.87
2018-12-21T23:47:48.195Z,97427.75
2018-12-21T23:50:23.167Z,97438.00
2018-12-21T23:52:58.090Z,97451.12
2018-12-21T23:55:33.124Z,97448.33
2018-12-21T23:58:13.790Z,97438.98
